createdAt,value
2019-03-05T00:01:58.317Z,87.48
2019-03-05T00:04:27.132Z,87.37
2019-03-05T00:06:55.834Z,86.86
2019-03-05T00:09:24.558Z,86.89
2019-03-05T00:11:53.237Z,86.92
2019-03-05T00:14:23.065Z,86.80
2019-03-05T00:16:51.761Z,86.34
2019-03-05T00:19:20.375Z,86.19
2019-03-05T00:21:49.105Z,86.11
2019-03-05T00:24:53.763Z,86.25
2019-03-05T00:27:22.414Z,85.92
2019-03-05T00:30:09.094Z,85.35
2019-03-05T00:32:37.799Z,85.30
2019-03-05T00:35:09.324Z,84.66
2019-03-05T00:37:40.949Z,84.57
2019-03-05T00:40:28.928Z,84.07
2019-03-05T00:43:03.475Z,84.03
2019-03-05T00:45:53.174Z,83.93
2019-03-05T00:48:27.591Z,84.06
2019-03-05T00:50:59.195Z,83.42
2019-03-05T00:53:33.832Z,83.39
2019-03-05T00:56:05.619Z,83.11
2019-03-05T00:58:42.807Z,82.76
2019-03-05T01:01:29.707Z,82.98
2019-03-05T01:04:28.334Z,82.87
2019-03-05T01:06:57.096Z,82.17
2019-03-05T01:09:26.218Z,81.80
2019-03-05T01:11:54.910Z,81.69
2019-03-05T01:14:25.203Z,82.15
2019-03-05T01:16:53.888Z,81.33
2019-03-05T01:19:22.608Z,80.83
2019-03-05T01:21:51.332Z,80.14
2019-03-05T01:24:20.281Z,79.13
2019-03-05T01:26:50.014Z,78.91
2019-03-05T01:29:18.629Z,78.32
2019-03-05T01:31:51.755Z,78.34
2019-03-05T01:34:31.097Z,77.95
2019-03-05T01:37:01.406Z,78.16
2019-03-05T01:39:43.658Z,78.52
2019-03-05T01:42:12.320Z,78.81
2019-03-05T01:44:41.010Z,78.97
2019-03-05T01:47:09.725Z,78.79
2019-03-05T01:49:38.426Z,78.98
2019-03-05T01:52:07.053Z,79.05
2019-03-05T01:54:35.776Z,79.22
2019-03-05T01:57:05.569Z,78.86
2019-03-05T01:59:34.236Z,78.91
2019-03-05T02:02:02.963Z,78.94
2019-03-05T02:04:31.639Z,78.94
2019-03-05T02:07:00.312Z,78.97
2019-03-05T02:09:29.021Z,79.11
2019-03-05T02:11:57.811Z,79.78
2019-03-05T02:14:26.555Z,79.32
2019-03-05T02:16:55.276Z,79.07
2019-03-05T02:19:37.416Z,79.48
2019-03-05T02:22:12.000Z,79.62
2019-03-05T02:25:07.289Z,79.14
2019-03-05T02:27:47.403Z,79.36
2019-03-05T02:30:39.638Z,78.95
2019-03-05T02:33:23.158Z,78.88
2019-03-05T02:36:06.680Z,79.16
2019-03-05T02:38:40.930Z,78.90
2019-03-05T02:41:12.586Z,78.97
2019-03-05T02:44:03.531Z,79.00
2019-03-05T02:46:55.862Z,79.01
2019-03-05T02:49:42.631Z,79.27
2019-03-05T02:52:42.853Z,79.81
2019-03-05T02:55:17.049Z,79.71
2019-03-05T02:57:44.557Z,80.62
2019-03-05T03:00:15.079Z,80.88
2019-03-05T03:02:48.340Z,81.02
2019-03-05T03:05:18.834Z,81.36
2019-03-05T03:07:47.662Z,81.58
2019-03-05T03:10:21.613Z,82.03
2019-03-05T03:12:50.322Z,82.33
2019-03-05T03:15:19.238Z,82.43
2019-03-05T03:17:48.027Z,82.59
2019-03-05T03:20:17.456Z,82.47
2019-03-05T03:22:46.130Z,82.28
2019-03-05T03:25:17.555Z,82.54
2019-03-05T03:27:46.409Z,82.48
2019-03-05T03:30:20.804Z,82.54
2019-03-05T03:32:49.414Z,82.51
2019-03-05T03:35:18.173Z,82.69
2019-03-05T03:37:46.947Z,82.94
2019-03-05T03:40:18.825Z,82.80
2019-03-05T03:42:47.634Z,82.84
2019-03-05T03:45:18.871Z,82.86
2019-03-05T03:47:47.642Z,83.13
2019-03-05T03:50:16.327Z,82.93
2019-03-05T03:52:45.074Z,82.89
2019-03-05T03:55:16.199Z,82.95
2019-03-05T03:57:44.905Z,83.05
2019-03-05T04:00:19.016Z,82.86
2019-03-05T04:02:47.661Z,82.86
2019-03-05T04:05:16.335Z,83.10
2019-03-05T04:07:45.027Z,82.79
2019-03-05T04:10:17.049Z,82.96
2019-03-05T04:12:45.750Z,82.80
2019-03-05T04:15:16.950Z,82.39
2019-03-05T04:17:45.728Z,81.99
2019-03-05T04:20:18.498Z,80.96
2019-03-05T04:22:47.061Z,79.94
2019-03-05T04:25:15.706Z,79.82
2019-03-05T04:27:44.354Z,79.98
2019-03-05T04:30:16.812Z,79.98
2019-03-05T04:32:45.388Z,80.08
2019-03-05T04:35:14.211Z,79.73
2019-03-05T04:37:42.903Z,79.76
2019-03-05T04:40:12.997Z,80.86
2019-03-05T04:42:41.631Z,84.99
2019-03-05T04:45:49.238Z,87.32
2019-03-05T04:48:17.858Z,88.33
2019-03-05T04:50:48.160Z,88.58
2019-03-05T04:53:16.855Z,89.33
2019-03-05T04:55:45.464Z,90.79
2019-03-05T04:58:14.141Z,91.61
2019-03-05T05:00:42.852Z,92.17
2019-03-05T05:03:11.532Z,92.23
2019-03-05T05:05:40.211Z,92.77
2019-03-05T05:08:08.846Z,93.24
2019-03-05T05:10:37.556Z,93.89
2019-03-05T05:13:06.285Z,94.34
2019-03-05T05:15:35.625Z,94.43
2019-03-05T05:18:05.298Z,94.42
2019-03-05T05:20:34.046Z,93.94
2019-03-05T05:23:02.612Z,92.83
2019-03-05T05:25:31.295Z,92.26
2019-03-05T05:27:59.964Z,92.24
2019-03-05T05:30:39.871Z,92.56
2019-03-05T05:33:09.374Z,92.58
2019-03-05T05:35:38.114Z,93.04
2019-03-05T05:38:06.797Z,93.49
2019-03-05T05:40:47.121Z,93.38
2019-03-05T05:43:19.823Z,93.49
2019-03-05T05:45:51.354Z,93.82
2019-03-05T05:48:20.192Z,93.66
2019-03-05T05:50:49.026Z,93.33
2019-03-05T05:53:18.303Z,93.26
2019-03-05T05:55:47.003Z,93.25
2019-03-05T05:58:16.513Z,93.52
2019-03-05T06:00:52.906Z,93.67
2019-03-05T06:03:22.681Z,93.52
2019-03-05T06:05:51.766Z,93.32
2019-03-05T06:08:21.388Z,93.10
2019-03-05T06:10:52.777Z,92.86
2019-03-05T06:13:20.596Z,92.76
2019-03-05T06:15:49.345Z,92.67
2019-03-05T06:18:17.922Z,92.73
2019-03-05T06:20:46.725Z,92.99
2019-03-05T06:23:15.559Z,93.05
2019-03-05T06:25:44.207Z,93.29
2019-03-05T06:28:12.883Z,93.41
2019-03-05T06:30:44.807Z,93.63
2019-03-05T06:33:13.639Z,93.72
2019-03-05T06:35:42.356Z,93.91
2019-03-05T06:38:11.052Z,93.70
2019-03-05T06:40:39.787Z,93.72
2019-03-05T06:43:08.454Z,93.82
2019-03-05T06:45:37.225Z,93.58
2019-03-05T06:48:05.923Z,93.38
2019-03-05T06:50:34.717Z,93.26
2019-03-05T06:53:03.462Z,93.36
2019-03-05T06:55:32.240Z,93.08
2019-03-05T06:58:00.876Z,92.51
2019-03-05T07:00:35.204Z,92.42
2019-03-05T07:03:06.193Z,92.25
2019-03-05T07:06:11.089Z,92.05
2019-03-05T07:08:42.679Z,92.23
2019-03-05T07:11:33.772Z,91.45
2019-03-05T07:14:11.262Z,90.63
2019-03-05T07:16:54.739Z,89.53
2019-03-05T07:19:26.259Z,89.00
2019-03-05T07:22:00.734Z,87.73
2019-03-05T07:24:48.811Z,87.09
2019-03-05T07:28:46.395Z,86.42
2019-03-05T07:31:15.106Z,86.17
2019-03-05T07:33:43.872Z,87.52
2019-03-05T07:36:12.672Z,86.94
2019-03-05T07:38:41.412Z,86.17
2019-03-05T07:41:10.156Z,85.66
2019-03-05T07:43:38.952Z,84.78
2019-03-05T07:46:07.688Z,85.92
2019-03-05T07:48:36.344Z,86.95
2019-03-05T07:51:05.242Z,88.04
2019-03-05T07:53:34.098Z,88.36
2019-03-05T07:56:02.845Z,88.61
2019-03-05T07:58:31.509Z,88.86
2019-03-05T08:01:00.248Z,89.30
2019-03-05T08:03:28.962Z,89.00
2019-03-05T08:05:57.831Z,88.78
2019-03-05T08:09:02.673Z,88.63
2019-03-05T08:11:31.927Z,87.97
2019-03-05T08:14:03.937Z,86.95
2019-03-05T08:16:32.695Z,86.73
2019-03-05T08:19:01.614Z,86.45
2019-03-05T08:21:30.347Z,86.37
2019-03-05T08:23:59.047Z,86.63
2019-03-05T08:26:27.783Z,86.28
2019-03-05T08:28:56.754Z,85.81
2019-03-05T08:31:25.437Z,84.92
2019-03-05T08:33:54.170Z,83.55
2019-03-05T08:36:23.016Z,81.91
2019-03-05T08:38:51.664Z,81.25
2019-03-05T08:41:20.401Z,83.50
2019-03-05T08:43:49.058Z,84.70
2019-03-05T08:46:17.756Z,85.68
2019-03-05T08:48:46.517Z,85.59
2019-03-05T08:51:15.200Z,85.85
2019-03-05T08:53:49.503Z,85.62
2019-03-05T08:56:14.419Z,85.38
2019-03-05T08:58:43.131Z,85.38
2019-03-05T09:01:11.883Z,85.22
2019-03-05T09:03:40.581Z,86.04
2019-03-05T09:06:09.409Z,84.21
2019-03-05T09:08:38.606Z,84.39
2019-03-05T09:11:08.319Z,83.39
2019-03-05T09:13:36.980Z,81.72
2019-03-05T09:16:05.811Z,82.15
2019-03-05T09:18:34.477Z,80.92
2019-03-05T09:21:03.231Z,80.57
2019-03-05T09:23:31.874Z,82.20
2019-03-05T09:26:00.591Z,81.60
2019-03-05T09:28:29.324Z,81.99
2019-03-05T09:30:58.173Z,82.58
2019-03-05T09:33:26.854Z,82.45
2019-03-05T09:35:55.574Z,82.56
2019-03-05T09:38:24.953Z,81.71
2019-03-05T09:40:53.610Z,81.85
2019-03-05T09:43:22.353Z,81.51
2019-03-05T09:45:51.045Z,82.53
2019-03-05T09:48:19.882Z,82.37
2019-03-05T09:50:48.532Z,82.55
2019-03-05T09:53:17.157Z,81.98
2019-03-05T09:55:45.833Z,81.77
2019-03-05T09:58:14.540Z,80.43
2019-03-05T10:00:43.280Z,80.72
2019-03-05T10:03:12.035Z,81.03
2019-03-05T10:05:40.762Z,81.13
2019-03-05T10:08:10.530Z,81.18
2019-03-05T10:10:39.163Z,80.45
2019-03-05T10:13:08.140Z,80.38
2019-03-05T10:15:36.871Z,80.43
2019-03-05T10:18:12.612Z,80.38
2019-03-05T10:20:36.955Z,79.94
2019-03-05T10:23:06.307Z,80.80
2019-03-05T10:25:35.041Z,80.50
2019-03-05T10:28:03.785Z,80.42
2019-03-05T10:30:38.063Z,78.63
2019-03-05T10:33:08.363Z,77.54
2019-03-05T10:35:37.227Z,77.71
2019-03-05T10:38:07.682Z,78.70
2019-03-05T10:40:47.458Z,79.06
2019-03-05T10:43:19.151Z,75.86
2019-03-05T10:45:49.471Z,74.51
2019-03-05T10:48:23.158Z,74.18
2019-03-05T10:50:52.421Z,74.26
2019-03-05T10:53:22.010Z,75.37
2019-03-05T10:55:50.671Z,74.72
2019-03-05T10:58:19.484Z,72.37
2019-03-05T11:00:53.916Z,73.32
2019-03-05T11:03:25.212Z,72.36
2019-03-05T11:05:54.246Z,70.98
2019-03-05T11:08:25.245Z,70.85
2019-03-05T11:10:54.870Z,70.40
2019-03-05T11:13:23.715Z,70.47
2019-03-05T11:15:58.199Z,68.50
2019-03-05T11:18:29.647Z,67.99
2019-03-05T11:20:57.404Z,67.17
2019-03-05T11:23:26.100Z,68.90
2019-03-05T11:25:54.863Z,68.33
2019-03-05T11:28:23.596Z,68.20
2019-03-05T11:30:52.486Z,68.25
2019-03-05T11:33:22.210Z,69.13
2019-03-05T11:35:51.826Z,69.40
2019-03-05T11:38:20.870Z,67.09
2019-03-05T11:40:49.474Z,67.64
2019-03-05T11:43:18.630Z,66.55
2019-03-05T11:45:47.332Z,64.28
2019-03-05T11:48:17.043Z,63.43
2019-03-05T11:50:45.999Z,66.90
2019-03-05T11:53:14.850Z,66.15
2019-03-05T11:55:43.508Z,65.91
2019-03-05T11:58:12.302Z,64.54
2019-03-05T12:00:52.082Z,63.98
2019-03-05T12:03:20.948Z,64.21
2019-03-05T12:05:56.905Z,63.53
2019-03-05T12:08:25.798Z,63.96
2019-03-05T12:10:54.481Z,64.04
2019-03-05T12:13:23.112Z,62.31
2019-03-05T12:15:51.841Z,62.09
2019-03-05T12:18:20.495Z,64.06
2019-03-05T12:20:49.177Z,65.09
2019-03-05T12:23:17.885Z,66.44
2019-03-05T12:25:46.581Z,64.18
2019-03-05T12:28:15.990Z,64.81
2019-03-05T12:30:53.883Z,64.89
2019-03-05T12:33:22.733Z,65.94
2019-03-05T12:35:51.694Z,63.90
2019-03-05T12:38:20.356Z,64.65
2019-03-05T12:40:49.087Z,64.48
2019-03-05T12:43:17.818Z,64.81
2019-03-05T12:45:47.425Z,64.21
2019-03-05T12:48:16.122Z,64.21
2019-03-05T12:50:44.831Z,60.58
2019-03-05T12:53:15.953Z,58.74
2019-03-05T12:55:44.158Z,59.19
2019-03-05T12:58:12.997Z,59.98
2019-03-05T13:00:41.731Z,59.08
2019-03-05T13:03:10.590Z,59.12
2019-03-05T13:05:39.331Z,59.25
2019-03-05T13:08:08.065Z,58.67
2019-03-05T13:10:37.670Z,60.04
2019-03-05T13:13:06.723Z,59.42
2019-03-05T13:15:38.133Z,60.40
2019-03-05T13:18:06.881Z,59.51
2019-03-05T13:20:35.663Z,59.95
2019-03-05T13:23:09.526Z,60.58
2019-03-05T13:25:38.175Z,62.29
2019-03-05T13:28:06.484Z,61.86
2019-03-05T13:30:35.354Z,62.27
2019-03-05T13:33:05.110Z,62.37
2019-03-05T13:35:33.858Z,62.37
2019-03-05T13:38:07.657Z,61.09
2019-03-05T13:40:38.527Z,62.54
2019-03-05T13:43:07.220Z,61.69
2019-03-05T13:45:36.166Z,57.75
2019-03-05T13:48:19.512Z,57.36
2019-03-05T13:51:11.723Z,58.23
2019-03-05T13:54:09.315Z,58.94
2019-03-05T13:56:42.382Z,60.83
2019-03-05T13:59:21.235Z,61.13
2019-03-05T14:01:49.928Z,60.71
2019-03-05T14:04:39.531Z,61.59
2019-03-05T14:07:11.841Z,63.79
2019-03-05T14:09:39.360Z,64.00
2019-03-05T14:12:08.004Z,64.49
2019-03-05T14:14:36.711Z,62.08
2019-03-05T14:17:10.317Z,61.42
2019-03-05T14:19:39.139Z,59.52
2019-03-05T14:22:07.915Z,59.38
2019-03-05T14:24:36.560Z,59.61
2019-03-05T14:27:05.469Z,59.20
2019-03-05T14:29:34.190Z,58.47
2019-03-05T14:32:02.954Z,58.38
2019-03-05T14:34:31.754Z,58.61
2019-03-05T14:37:00.527Z,57.56
2019-03-05T14:39:32.717Z,56.94
2019-03-05T14:42:02.634Z,55.27
2019-03-05T14:44:39.859Z,54.57
2019-03-05T14:47:04.623Z,54.58
2019-03-05T14:49:33.435Z,55.99
2019-03-05T14:52:02.080Z,56.37
2019-03-05T14:54:30.795Z,56.76
2019-03-05T14:56:59.552Z,56.11
2019-03-05T14:59:28.381Z,57.45
2019-03-05T15:01:57.169Z,58.66
2019-03-05T15:04:26.085Z,57.93
2019-03-05T15:06:55.024Z,58.74
2019-03-05T15:09:23.819Z,59.15
2019-03-05T15:11:52.492Z,59.50
2019-03-05T15:14:21.208Z,58.28
2019-03-05T15:16:49.919Z,58.13
2019-03-05T15:19:21.741Z,58.83
2019-03-05T15:21:49.161Z,56.00
2019-03-05T15:24:17.927Z,56.55
2019-03-05T15:26:46.690Z,56.86
2019-03-05T15:29:15.492Z,55.00
2019-03-05T15:31:44.228Z,56.50
2019-03-05T15:34:12.946Z,55.83
2019-03-05T15:36:41.791Z,56.12
2019-03-05T15:39:10.721Z,57.15
2019-03-05T15:41:39.532Z,56.71
2019-03-05T15:44:10.504Z,56.71
2019-03-05T15:46:39.388Z,57.61
2019-03-05T15:49:08.196Z,57.95
2019-03-05T15:51:37.121Z,57.44
2019-03-05T15:54:05.914Z,58.26
2019-03-05T15:56:34.651Z,56.52
2019-03-05T15:59:03.467Z,56.28
2019-03-05T16:01:32.609Z,56.81
2019-03-05T16:04:01.385Z,57.91
2019-03-05T16:06:33.736Z,57.09
2019-03-05T16:09:02.246Z,56.72
2019-03-05T16:11:34.082Z,57.52
2019-03-05T16:14:01.457Z,59.76
2019-03-05T16:16:30.319Z,58.38
2019-03-05T16:18:59.109Z,58.70
2019-03-05T16:21:27.873Z,58.47
2019-03-05T16:23:56.701Z,58.33
2019-03-05T16:26:25.506Z,58.41
2019-03-05T16:28:54.456Z,58.69
2019-03-05T16:31:24.836Z,59.25
2019-03-05T16:34:13.144Z,59.43
2019-03-05T16:36:42.296Z,59.58
2019-03-05T16:39:16.612Z,59.78
2019-03-05T16:41:46.937Z,60.74
2019-03-05T16:44:36.075Z,61.00
2019-03-05T16:47:22.977Z,60.71
2019-03-05T16:49:53.300Z,61.45
2019-03-05T16:52:39.641Z,62.79
2019-03-05T16:55:28.491Z,62.28
2019-03-05T16:58:01.762Z,63.38
2019-03-05T17:00:48.771Z,63.50
2019-03-05T17:03:19.139Z,64.26
2019-03-05T17:06:05.796Z,63.84
2019-03-05T17:08:39.155Z,64.44
2019-03-05T17:11:19.304Z,64.89
2019-03-05T17:13:51.449Z,65.36
2019-03-05T17:16:29.891Z,65.44
2019-03-05T17:18:58.899Z,65.87
2019-03-05T17:21:28.119Z,65.59
2019-03-05T17:23:58.896Z,66.40
2019-03-05T17:26:28.537Z,66.46
2019-03-05T17:28:59.177Z,66.57
2019-03-05T17:31:28.515Z,67.04
2019-03-05T17:33:58.084Z,67.22
2019-03-05T17:36:26.853Z,67.76
2019-03-05T17:38:58.603Z,67.97
2019-03-05T17:41:28.284Z,68.38
2019-03-05T17:43:59.863Z,68.92
2019-03-05T17:46:35.939Z,68.72
2019-03-05T17:49:08.179Z,68.35
2019-03-05T17:51:40.652Z,68.87
2019-03-05T17:54:11.696Z,68.89
2019-03-05T17:56:43.051Z,69.03
2019-03-05T17:59:12.709Z,68.95
2019-03-05T18:01:43.250Z,69.47
2019-03-05T18:04:15.544Z,69.66
2019-03-05T18:06:49.531Z,68.99
2019-03-05T18:09:18.675Z,69.10
2019-03-05T18:11:47.394Z,69.26
2019-03-05T18:14:16.131Z,69.51
2019-03-05T18:16:45.005Z,69.36
2019-03-05T18:19:13.665Z,69.33
2019-03-05T18:21:42.560Z,69.64
2019-03-05T18:24:11.287Z,69.42
2019-03-05T18:26:44.246Z,69.52
2019-03-05T18:29:13.109Z,69.98
2019-03-05T18:31:41.889Z,69.85
2019-03-05T18:34:10.601Z,69.91
2019-03-05T18:36:39.362Z,69.70
2019-03-05T18:39:09.123Z,69.63
2019-03-05T18:41:37.798Z,69.58
2019-03-05T18:44:06.471Z,70.00
2019-03-05T18:46:35.365Z,69.53
2019-03-05T18:49:04.925Z,69.96
2019-03-05T18:51:33.572Z,69.65
2019-03-05T18:54:02.195Z,69.65
2019-03-05T18:56:31.004Z,69.91
2019-03-05T18:58:59.673Z,70.24
2019-03-05T19:01:28.475Z,70.42
2019-03-05T19:03:57.131Z,70.57
2019-03-05T19:06:25.896Z,70.15
2019-03-05T19:08:54.719Z,70.12
2019-03-05T19:11:23.625Z,70.39
2019-03-05T19:13:52.277Z,70.20
2019-03-05T19:16:21.063Z,70.10
2019-03-05T19:18:49.620Z,70.76
2019-03-05T19:21:18.533Z,70.59
2019-03-05T19:23:47.239Z,70.95
2019-03-05T19:26:16.009Z,70.80
2019-03-05T19:28:44.840Z,70.60
2019-03-05T19:31:13.764Z,70.85
2019-03-05T19:33:43.779Z,70.52
2019-03-05T19:36:12.725Z,70.74
2019-03-05T19:38:41.478Z,70.87
2019-03-05T19:41:10.392Z,70.91
2019-03-05T19:43:39.459Z,72.07
2019-03-05T19:46:08.531Z,73.11
2019-03-05T19:48:37.536Z,73.79
2019-03-05T19:51:06.570Z,74.64
2019-03-05T19:53:35.577Z,75.05
2019-03-05T19:56:05.500Z,75.12
2019-03-05T19:58:34.391Z,75.22
2019-03-05T20:01:04.820Z,75.63
2019-03-05T20:03:34.036Z,75.59
2019-03-05T20:06:03.140Z,77.04
2019-03-05T20:08:39.479Z,77.09
2019-03-05T20:11:02.880Z,76.83
2019-03-05T20:13:52.837Z,78.09
2019-03-05T20:16:22.231Z,77.57
2019-03-05T20:18:51.492Z,76.89
2019-03-05T20:21:20.458Z,77.10
2019-03-05T20:23:49.438Z,77.34
2019-03-05T20:26:18.459Z,78.08
2019-03-05T20:28:47.342Z,78.33
2019-03-05T20:31:16.643Z,79.03
2019-03-05T20:33:45.499Z,79.44
2019-03-05T20:36:14.406Z,79.92
2019-03-05T20:38:44.400Z,79.55
2019-03-05T20:41:14.033Z,80.24
2019-03-05T20:43:43.954Z,79.70
2019-03-05T20:46:15.577Z,79.91
2019-03-05T20:48:48.224Z,79.93
2019-03-05T20:51:16.927Z,79.88
2019-03-05T20:53:45.760Z,79.79
2019-03-05T20:56:14.708Z,79.80
2019-03-05T20:58:43.391Z,80.15
2019-03-05T21:01:12.211Z,80.51
2019-03-05T21:03:41.008Z,81.45
2019-03-05T21:06:09.805Z,81.18
2019-03-05T21:08:38.722Z,80.75
2019-03-05T21:11:07.482Z,80.74
2019-03-05T21:13:36.238Z,81.64
2019-03-05T21:16:05.657Z,81.04
2019-03-05T21:18:34.462Z,80.67
2019-03-05T21:21:03.505Z,80.69
2019-03-05T21:23:32.571Z,80.78
2019-03-05T21:26:01.689Z,80.69
2019-03-05T21:28:31.024Z,80.24
2019-03-05T21:31:00.571Z,80.39
2019-03-05T21:33:29.350Z,80.13
2019-03-05T21:35:57.999Z,80.34
2019-03-05T21:38:26.688Z,80.88
2019-03-05T21:40:55.461Z,81.59
2019-03-05T21:43:24.148Z,82.30
2019-03-05T21:45:56.084Z,83.29
2019-03-05T21:48:24.835Z,83.26
2019-03-05T21:50:53.538Z,82.39
2019-03-05T21:53:22.285Z,82.51
2019-03-05T21:55:50.948Z,82.86
2019-03-05T21:58:20.503Z,83.09
2019-03-05T22:00:49.149Z,82.88
2019-03-05T22:03:17.883Z,83.36
2019-03-05T22:05:46.635Z,84.21
2019-03-05T22:08:15.398Z,83.55
2019-03-05T22:10:44.104Z,83.45
2019-03-05T22:13:12.841Z,84.05
2019-03-05T22:15:42.663Z,83.96
2019-03-05T22:18:11.503Z,84.39
2019-03-05T22:20:40.255Z,84.60
2019-03-05T22:23:08.991Z,85.00
2019-03-05T22:25:37.793Z,85.10
2019-03-05T22:28:06.591Z,85.40
2019-03-05T22:30:37.871Z,85.77
2019-03-05T22:33:06.931Z,85.49
2019-03-05T22:35:35.672Z,85.65
2019-03-05T22:38:05.267Z,86.09
2019-03-05T22:40:34.038Z,85.99
2019-03-05T22:43:02.713Z,86.44
2019-03-05T22:45:35.252Z,86.64
2019-03-05T22:48:04.066Z,87.06
2019-03-05T22:50:32.786Z,87.07
2019-03-05T22:53:01.435Z,87.54
2019-03-05T22:55:30.160Z,88.08
2019-03-05T22:57:58.988Z,88.03
2019-03-05T23:00:44.083Z,88.00
2019-03-05T23:03:18.463Z,87.99
2019-03-05T23:05:49.015Z,88.23
2019-03-05T23:08:18.660Z,88.56
2019-03-05T23:10:48.288Z,88.40
2019-03-05T23:13:19.288Z,88.07
2019-03-05T23:15:48.023Z,87.81
2019-03-05T23:18:16.954Z,88.08
2019-03-05T23:20:45.630Z,88.54
2019-03-05T23:23:14.399Z,88.65
2019-03-05T23:25:43.163Z,88.60
2019-03-05T23:28:11.892Z,88.60
2019-03-05T23:30:41.048Z,88.42
2019-03-05T23:33:09.775Z,88.17
2019-03-05T23:35:38.504Z,88.72
2019-03-05T23:38:07.308Z,88.64
2019-03-05T23:40:36.836Z,88.52
2019-03-05T23:43:06.577Z,88.41
2019-03-05T23:45:35.941Z,88.37
2019-03-05T23:48:05.038Z,88.47
2019-03-05T23:50:33.904Z,88.46
2019-03-05T23:53:02.646Z,88.26
2019-03-05T23:55:31.441Z,88.53
2019-03-05T23:58:00.091Z,88.42
